RAM218A GMMN-KIAD
Flight info
| Callsign | RAM218A |
|---|---|
| Flight time | N/A |
| Altitude | 36000 |
| Route | ODAXA UH899 IBALU DCT SUBAL DCT LUTAK/M081F360 DCT 38N020W 40N030W 41N040W/M081F380 42N050W 42N060W DCT DOVEY/N0459F380 DCT SAILE DCT ACK Q430 RBV HYPER9 |
| Aircraft | A343/H-SDE2E3FGHIJ3J5M1P2RWXYZ/LB1D1 |
Departure
| Time | N/A |
|---|---|
| Airport | Mohammed V International Airport (GMMN) |
Arrival
| Time | 2026-05-05 15:50 |
|---|---|
| Airport | Washington Dulles International Airport (KIAD) |
| Time | Latitude | Longitude | Altitude | Speed | Heading |
|---|---|---|---|---|---|
| 2026-05-05 10:22 | 40.20359 | -31.47117 | 36436 ft | 420 kts | 288° |
| 2026-05-05 10:22 | 40.21346 | -31.54639 | 36421 ft | 420 kts | 288° |
| 2026-05-05 10:23 | 40.22329 | -31.62164 | 36434 ft | 420 kts | 288° |
| 2026-05-05 10:23 | 40.23307 | -31.69694 | 36434 ft | 420 kts | 288° |
| 2026-05-05 10:24 | 40.24280 | -31.77226 | 36440 ft | 420 kts | 288° |
| 2026-05-05 10:24 | 40.25250 | -31.84775 | 36436 ft | 420 kts | 288° |
| 2026-05-05 10:25 | 40.26214 | -31.92313 | 36435 ft | 420 kts | 288° |
| 2026-05-05 10:25 | 40.27173 | -31.99856 | 36436 ft | 420 kts | 288° |
| 2026-05-05 10:26 | 40.28127 | -32.07397 | 36439 ft | 420 kts | 287° |
| 2026-05-05 10:26 | 40.29072 | -32.14919 | 36435 ft | 418 kts | 287° |
| 2026-05-05 10:27 | 40.30004 | -32.22373 | 36435 ft | 417 kts | 287° |
| 2026-05-05 10:27 | 40.30937 | -32.29871 | 36437 ft | 417 kts | 287° |
| 2026-05-05 10:28 | 40.31866 | -32.37371 | 36436 ft | 417 kts | 287° |
| 2026-05-05 10:28 | 40.32791 | -32.44879 | 36432 ft | 417 kts | 287° |
| 2026-05-05 10:29 | 40.33710 | -32.52391 | 36431 ft | 417 kts | 287° |
| 2026-05-05 10:29 | 40.34467 | -32.58613 | 36427 ft | 416 kts | 287° |
| 2026-05-05 10:30 | 40.35374 | -32.66098 | 36426 ft | 416 kts | 287° |
| 2026-05-05 10:30 | 40.36277 | -32.73592 | 36437 ft | 416 kts | 287° |
| 2026-05-05 10:31 | 40.37174 | -32.81077 | 36422 ft | 416 kts | 286° |
| 2026-05-05 10:31 | 40.38067 | -32.88572 | 36436 ft | 416 kts | 286° |
| 2026-05-05 10:32 | 40.38954 | -32.96067 | 36429 ft | 416 kts | 286° |
| 2026-05-05 10:32 | 40.39834 | -33.03550 | 36429 ft | 414 kts | 286° |
| 2026-05-05 10:33 | 40.40703 | -33.10971 | 36433 ft | 414 kts | 286° |
| 2026-05-05 10:33 | 40.41573 | -33.18438 | 36428 ft | 414 kts | 286° |
| 2026-05-05 10:34 | 40.42439 | -33.25915 | 36430 ft | 414 kts | 286° |
| 2026-05-05 10:34 | 40.43299 | -33.33390 | 36430 ft | 414 kts | 286° |
| 2026-05-05 10:35 | 40.44155 | -33.40864 | 36428 ft | 414 kts | 285° |
| 2026-05-05 10:35 | 40.45002 | -33.48328 | 36427 ft | 413 kts | 285° |
| 2026-05-05 10:36 | 40.45840 | -33.55734 | 36431 ft | 413 kts | 285° |
| 2026-05-05 10:36 | 40.46678 | -33.63192 | 36429 ft | 413 kts | 285° |
| 2026-05-05 10:37 | 40.47512 | -33.70649 | 36427 ft | 413 kts | 285° |
| 2026-05-05 10:37 | 40.48341 | -33.78116 | 36428 ft | 413 kts | 285° |
| 2026-05-05 10:38 | 40.49164 | -33.85577 | 36424 ft | 412 kts | 285° |
| 2026-05-05 10:38 | 40.49980 | -33.93018 | 36413 ft | 412 kts | 284° |
| 2026-05-05 10:39 | 40.50795 | -34.00481 | 36425 ft | 413 kts | 284° |
| 2026-05-05 10:39 | 40.51606 | -34.07961 | 36423 ft | 413 kts | 284° |
| 2026-05-05 10:40 | 40.52411 | -34.15442 | 36420 ft | 414 kts | 284° |
| 2026-05-05 10:40 | 40.53212 | -34.22928 | 36423 ft | 414 kts | 284° |
| 2026-05-05 10:41 | 40.54004 | -34.30371 | 36422 ft | 413 kts | 284° |
| 2026-05-05 10:41 | 40.54794 | -34.37854 | 36402 ft | 413 kts | 284° |
| 2026-05-05 10:42 | 40.55979 | -34.49140 | 36420 ft | 416 kts | 283° |
| 2026-05-05 10:43 | 40.56765 | -34.56695 | 36419 ft | 417 kts | 283° |
| 2026-05-05 10:43 | 40.57544 | -34.64243 | 36419 ft | 417 kts | 283° |
| 2026-05-05 10:44 | 40.58320 | -34.71802 | 36413 ft | 417 kts | 283° |
| 2026-05-05 10:44 | 40.59088 | -34.79325 | 36414 ft | 418 kts | 283° |
| 2026-05-05 10:45 | 40.59856 | -34.86908 | 36399 ft | 419 kts | 283° |
| 2026-05-05 10:45 | 40.60629 | -34.94570 | 36412 ft | 425 kts | 283° |
| 2026-05-05 10:46 | 40.61401 | -35.02290 | 36410 ft | 425 kts | 283° |
| 2026-05-05 10:46 | 40.62165 | -35.10010 | 36411 ft | 426 kts | 282° |
| 2026-05-05 10:47 | 40.62926 | -35.17740 | 36411 ft | 425 kts | 282° |
| 2026-05-05 10:47 | 40.63681 | -35.25455 | 36409 ft | 425 kts | 282° |
| 2026-05-05 10:48 | 40.64426 | -35.33123 | 36409 ft | 425 kts | 282° |
| 2026-05-05 10:48 | 40.65171 | -35.40842 | 36406 ft | 425 kts | 282° |
| 2026-05-05 10:49 | 40.65911 | -35.48563 | 36406 ft | 425 kts | 282° |
| 2026-05-05 10:49 | 40.66646 | -35.56291 | 36406 ft | 425 kts | 282° |
| 2026-05-05 10:50 | 40.67374 | -35.64004 | 36405 ft | 423 kts | 282° |
| 2026-05-05 10:50 | 40.68095 | -35.71697 | 36407 ft | 423 kts | 282° |
| 2026-05-05 10:51 | 40.68811 | -35.79386 | 36392 ft | 423 kts | 282° |
| 2026-05-05 10:51 | 40.69520 | -35.87047 | 36404 ft | 424 kts | 282° |
| 2026-05-05 10:52 | 40.70229 | -35.94775 | 36400 ft | 425 kts | 282° |
| 2026-05-05 10:52 | 40.70932 | -36.02503 | 36397 ft | 425 kts | 282° |
| 2026-05-05 10:53 | 40.71630 | -36.10238 | 36393 ft | 425 kts | 282° |
| 2026-05-05 10:53 | 40.72324 | -36.17977 | 36399 ft | 425 kts | 282° |
| 2026-05-05 10:54 | 40.73013 | -36.25718 | 36386 ft | 425 kts | 281° |
| 2026-05-05 10:54 | 40.73697 | -36.33467 | 36403 ft | 426 kts | 281° |
| 2026-05-05 10:55 | 40.74377 | -36.41234 | 36393 ft | 426 kts | 281° |
| 2026-05-05 10:55 | 40.75047 | -36.48941 | 36395 ft | 425 kts | 281° |
| 2026-05-05 10:56 | 40.75711 | -36.56660 | 36394 ft | 423 kts | 281° |
| 2026-05-05 10:56 | 40.76370 | -36.64360 | 36388 ft | 422 kts | 281° |
| 2026-05-05 10:57 | 40.77024 | -36.72060 | 36377 ft | 422 kts | 280° |
| 2026-05-05 10:57 | 40.77672 | -36.79751 | 36386 ft | 421 kts | 280° |
| 2026-05-05 10:58 | 40.78312 | -36.87426 | 36384 ft | 421 kts | 280° |
| 2026-05-05 10:58 | 40.78948 | -36.95098 | 36392 ft | 420 kts | 279° |
| 2026-05-05 10:59 | 40.79575 | -37.02738 | 36380 ft | 418 kts | 279° |
| 2026-05-05 10:59 | 40.80196 | -37.10358 | 36379 ft | 418 kts | 279° |
| 2026-05-05 11:00 | 40.80812 | -37.17984 | 36380 ft | 418 kts | 279° |
| 2026-05-05 11:00 | 40.81425 | -37.25602 | 36380 ft | 417 kts | 279° |
| 2026-05-05 11:01 | 40.82026 | -37.33181 | 36371 ft | 418 kts | 279° |
| 2026-05-05 11:01 | 40.82626 | -37.40802 | 36376 ft | 417 kts | 279° |
| 2026-05-05 11:02 | 40.83219 | -37.48404 | 36367 ft | 416 kts | 279° |
| 2026-05-05 11:02 | 40.83806 | -37.55995 | 36369 ft | 415 kts | 278° |
| 2026-05-05 11:03 | 40.84390 | -37.63592 | 36365 ft | 415 kts | 278° |
| 2026-05-05 11:03 | 40.84967 | -37.71179 | 36365 ft | 415 kts | 278° |
| 2026-05-05 11:04 | 40.85540 | -37.78765 | 36361 ft | 415 kts | 278° |
| 2026-05-05 11:04 | 40.86103 | -37.86306 | 36363 ft | 414 kts | 278° |
| 2026-05-05 11:05 | 40.86663 | -37.93864 | 36364 ft | 413 kts | 278° |
| 2026-05-05 11:05 | 40.87216 | -38.01405 | 36363 ft | 412 kts | 278° |
| 2026-05-05 11:06 | 40.87766 | -38.08952 | 36346 ft | 413 kts | 278° |
| 2026-05-05 11:06 | 40.88311 | -38.16500 | 36352 ft | 412 kts | 278° |
| 2026-05-05 11:07 | 40.88849 | -38.24037 | 36353 ft | 412 kts | 277° |
| 2026-05-05 11:07 | 40.89383 | -38.31571 | 36352 ft | 411 kts | 277° |
| 2026-05-05 11:08 | 40.89909 | -38.39076 | 36355 ft | 410 kts | 277° |
| 2026-05-05 11:08 | 40.90432 | -38.46571 | 36351 ft | 409 kts | 277° |
| 2026-05-05 11:09 | 40.90946 | -38.54062 | 36349 ft | 409 kts | 277° |
| 2026-05-05 11:09 | 40.91455 | -38.61549 | 36351 ft | 409 kts | 277° |
| 2026-05-05 11:10 | 40.91956 | -38.68971 | 36346 ft | 407 kts | 277° |
| 2026-05-05 11:10 | 40.92454 | -38.76426 | 36341 ft | 406 kts | 276° |
| 2026-05-05 11:11 | 40.92945 | -38.83846 | 36337 ft | 404 kts | 276° |
| 2026-05-05 11:11 | 40.93430 | -38.91251 | 36337 ft | 404 kts | 276° |
| 2026-05-05 11:12 | 40.93911 | -38.98663 | 36335 ft | 404 kts | 276° |
| 2026-05-05 11:12 | 40.94387 | -39.06073 | 36332 ft | 404 kts | 276° |
| 2026-05-05 11:13 | 40.94859 | -39.13491 | 36331 ft | 405 kts | 276° |
| 2026-05-05 11:13 | 40.95326 | -39.20909 | 36327 ft | 404 kts | 276° |
| 2026-05-05 11:14 | 40.95784 | -39.28250 | 36327 ft | 402 kts | 276° |
| 2026-05-05 11:14 | 40.96238 | -39.35627 | 36325 ft | 402 kts | 276° |
| 2026-05-05 11:15 | 40.96688 | -39.43004 | 36324 ft | 402 kts | 276° |
| 2026-05-05 11:15 | 40.97133 | -39.50376 | 36323 ft | 402 kts | 276° |
| 2026-05-05 11:16 | 40.97574 | -39.57762 | 36306 ft | 402 kts | 275° |
| 2026-05-05 11:16 | 40.98011 | -39.65146 | 36324 ft | 402 kts | 275° |
| 2026-05-05 11:17 | 40.98441 | -39.72511 | 36308 ft | 401 kts | 275° |
| 2026-05-05 11:17 | 40.98865 | -39.79857 | 36302 ft | 400 kts | 275° |
| 2026-05-05 11:18 | 40.99285 | -39.87195 | 36303 ft | 400 kts | 275° |
| 2026-05-05 11:18 | 40.99699 | -39.94540 | 36382 ft | 400 kts | 275° |
| 2026-05-05 11:18 | 40.99911 | -39.98162 | 36593 ft | 399 kts | 276° |
| 2026-05-05 11:19 | 41.00306 | -40.01792 | 36815 ft | 398 kts | 280° |
| 2026-05-05 11:19 | 41.00784 | -40.05393 | 37037 ft | 397 kts | 281° |
| 2026-05-05 11:19 | 41.01287 | -40.08979 | 37282 ft | 395 kts | 281° |
| 2026-05-05 11:19 | 41.01799 | -40.12534 | 37609 ft | 392 kts | 281° |
| 2026-05-05 11:20 | 41.02314 | -40.16069 | 37873 ft | 390 kts | 281° |
| 2026-05-05 11:20 | 41.02827 | -40.19597 | 38093 ft | 389 kts | 281° |
| 2026-05-05 11:20 | 41.03336 | -40.23113 | 38273 ft | 389 kts | 281° |
| 2026-05-05 11:21 | 41.04353 | -40.30191 | 38300 ft | 391 kts | 281° |
| 2026-05-05 11:21 | 41.05358 | -40.37249 | 38300 ft | 389 kts | 281° |
| 2026-05-05 11:22 | 41.06357 | -40.44306 | 38297 ft | 389 kts | 281° |
| 2026-05-05 11:22 | 41.07350 | -40.51352 | 38295 ft | 388 kts | 281° |
| 2026-05-05 11:23 | 41.08332 | -40.58358 | 38295 ft | 386 kts | 281° |
| 2026-05-05 11:23 | 41.09144 | -40.64167 | 38287 ft | 385 kts | 281° |
| 2026-05-05 11:24 | 41.10114 | -40.71136 | 38293 ft | 384 kts | 281° |
| 2026-05-05 11:24 | 41.11078 | -40.78097 | 38292 ft | 384 kts | 281° |
| 2026-05-05 11:25 | 41.12037 | -40.85054 | 38293 ft | 383 kts | 280° |
| 2026-05-05 11:25 | 41.12988 | -40.91989 | 38288 ft | 381 kts | 280° |
| 2026-05-05 11:26 | 41.13933 | -40.98906 | 38291 ft | 381 kts | 280° |
| 2026-05-05 11:26 | 41.14873 | -41.05826 | 38282 ft | 381 kts | 280° |
| 2026-05-05 11:27 | 41.15810 | -41.12750 | 38282 ft | 381 kts | 280° |
| 2026-05-05 11:27 | 41.16742 | -41.19672 | 38284 ft | 381 kts | 280° |
| 2026-05-05 11:28 | 41.17669 | -41.26585 | 38287 ft | 380 kts | 279° |
| 2026-05-05 11:28 | 41.18589 | -41.33484 | 38284 ft | 379 kts | 279° |
| 2026-05-05 11:29 | 41.19504 | -41.40384 | 38285 ft | 379 kts | 279° |
| 2026-05-05 11:29 | 41.20409 | -41.47232 | 38285 ft | 379 kts | 279° |
| 2026-05-05 11:30 | 41.21316 | -41.54130 | 38286 ft | 379 kts | 279° |
| 2026-05-05 11:30 | 41.22218 | -41.61025 | 38288 ft | 379 kts | 279° |
| 2026-05-05 11:31 | 41.23117 | -41.67925 | 38293 ft | 379 kts | 278° |
| 2026-05-05 11:31 | 41.24011 | -41.74821 | 38293 ft | 378 kts | 278° |
| 2026-05-05 11:32 | 41.24899 | -41.81714 | 38296 ft | 378 kts | 278° |
| 2026-05-05 11:32 | 41.25784 | -41.88609 | 38298 ft | 379 kts | 278° |
| 2026-05-05 11:33 | 41.26658 | -41.95460 | 38300 ft | 379 kts | 278° |
| 2026-05-05 11:33 | 41.27536 | -42.02362 | 38316 ft | 378 kts | 278° |
| 2026-05-05 11:34 | 41.28408 | -42.09257 | 38306 ft | 378 kts | 278° |
| 2026-05-05 11:34 | 41.29275 | -42.16152 | 38309 ft | 378 kts | 278° |
| 2026-05-05 11:35 | 41.30138 | -42.23049 | 38310 ft | 378 kts | 278° |
| 2026-05-05 11:35 | 41.30997 | -42.29946 | 38313 ft | 378 kts | 278° |
| 2026-05-05 11:36 | 41.31851 | -42.36838 | 38316 ft | 378 kts | 278° |
| 2026-05-05 11:36 | 41.32696 | -42.43689 | 38321 ft | 377 kts | 277° |
| 2026-05-05 11:37 | 41.33539 | -42.50566 | 38329 ft | 376 kts | 277° |
| 2026-05-05 11:37 | 41.34378 | -42.57440 | 38321 ft | 376 kts | 277° |
| 2026-05-05 11:38 | 41.35213 | -42.64319 | 38330 ft | 376 kts | 277° |
| 2026-05-05 11:38 | 41.36044 | -42.71198 | 38333 ft | 376 kts | 277° |
| 2026-05-05 11:39 | 41.36871 | -42.78080 | 38327 ft | 376 kts | 277° |
| 2026-05-05 11:39 | 41.37693 | -42.84959 | 38324 ft | 376 kts | 277° |
| 2026-05-05 11:40 | 41.38511 | -42.91836 | 38331 ft | 376 kts | 276° |
| 2026-05-05 11:40 | 41.39323 | -42.98711 | 38328 ft | 376 kts | 276° |
| 2026-05-05 11:41 | 41.40132 | -43.05587 | 38334 ft | 375 kts | 276° |
| 2026-05-05 11:41 | 41.40937 | -43.12461 | 38333 ft | 376 kts | 276° |
| 2026-05-05 11:42 | 41.41737 | -43.19335 | 38351 ft | 376 kts | 276° |
| 2026-05-05 11:42 | 41.42528 | -43.26165 | 38335 ft | 375 kts | 276° |
| 2026-05-05 11:43 | 41.43318 | -43.33032 | 38336 ft | 375 kts | 276° |
| 2026-05-05 11:43 | 41.44106 | -43.39909 | 38339 ft | 375 kts | 276° |
| 2026-05-05 11:44 | 41.44888 | -43.46777 | 38341 ft | 375 kts | 276° |
| 2026-05-05 11:44 | 41.45666 | -43.53648 | 38341 ft | 375 kts | 276° |
| 2026-05-05 11:45 | 41.46441 | -43.60525 | 38344 ft | 375 kts | 275° |
| 2026-05-05 11:45 | 41.47211 | -43.67394 | 38346 ft | 374 kts | 275° |
| 2026-05-05 11:46 | 41.47971 | -43.74217 | 38344 ft | 374 kts | 275° |
| 2026-05-05 11:46 | 41.48732 | -43.81082 | 38344 ft | 374 kts | 275° |
| 2026-05-05 11:47 | 41.49489 | -43.87956 | 38345 ft | 374 kts | 275° |
| 2026-05-05 11:47 | 41.50243 | -43.94833 | 38339 ft | 375 kts | 275° |
| 2026-05-05 11:48 | 41.51365 | -44.05140 | 38346 ft | 374 kts | 275° |
| 2026-05-05 11:48 | 41.52105 | -44.11999 | 38346 ft | 373 kts | 275° |
| 2026-05-05 11:49 | 41.52843 | -44.18866 | 38346 ft | 373 kts | 275° |
| 2026-05-05 11:49 | 41.53575 | -44.25720 | 38346 ft | 373 kts | 275° |
| 2026-05-05 11:50 | 41.54301 | -44.32569 | 38349 ft | 373 kts | 275° |
| 2026-05-05 11:50 | 41.55026 | -44.39437 | 38349 ft | 373 kts | 275° |
| 2026-05-05 11:51 | 41.55741 | -44.46247 | 38349 ft | 373 kts | 275° |
| 2026-05-05 11:51 | 41.56457 | -44.53113 | 38349 ft | 373 kts | 275° |
| 2026-05-05 11:52 | 41.57168 | -44.59973 | 38349 ft | 373 kts | 275° |
| 2026-05-05 11:52 | 41.57876 | -44.66842 | 38349 ft | 373 kts | 275° |
| 2026-05-05 11:53 | 41.58580 | -44.73707 | 38349 ft | 373 kts | 274° |
| 2026-05-05 11:53 | 41.59280 | -44.80574 | 38350 ft | 372 kts | 274° |
| 2026-05-05 11:54 | 41.59973 | -44.87422 | 38347 ft | 372 kts | 274° |
| 2026-05-05 11:54 | 41.60661 | -44.94265 | 38358 ft | 372 kts | 274° |
| 2026-05-05 11:55 | 41.61345 | -45.01109 | 38354 ft | 372 kts | 274° |
| 2026-05-05 11:55 | 41.62027 | -45.07968 | 38358 ft | 372 kts | 274° |
| 2026-05-05 11:56 | 41.62699 | -45.14776 | 38354 ft | 372 kts | 274° |
| 2026-05-05 11:56 | 41.63372 | -45.21628 | 38346 ft | 371 kts | 274° |
| 2026-05-05 11:57 | 41.64039 | -45.28466 | 38356 ft | 371 kts | 274° |
| 2026-05-05 11:57 | 41.64702 | -45.35311 | 38362 ft | 371 kts | 274° |
| 2026-05-05 11:58 | 41.65362 | -45.42159 | 38357 ft | 371 kts | 274° |
| 2026-05-05 11:58 | 41.66017 | -45.49007 | 38357 ft | 371 kts | 273° |
| 2026-05-05 11:59 | 41.66669 | -45.55861 | 38359 ft | 371 kts | 273° |
| 2026-05-05 11:59 | 41.67312 | -45.62669 | 38359 ft | 371 kts | 273° |
| 2026-05-05 12:00 | 41.67956 | -45.69516 | 38360 ft | 371 kts | 273° |
| 2026-05-05 12:00 | 41.68593 | -45.76358 | 38360 ft | 371 kts | 273° |
| 2026-05-05 12:01 | 41.69227 | -45.83199 | 38363 ft | 371 kts | 273° |
| 2026-05-05 12:01 | 41.69857 | -45.90050 | 38357 ft | 371 kts | 273° |
| 2026-05-05 12:02 | 41.70484 | -45.96909 | 38392 ft | 371 kts | 273° |
| 2026-05-05 12:02 | 41.71106 | -46.03758 | 38357 ft | 370 kts | 272° |
| 2026-05-05 12:03 | 41.71723 | -46.10603 | 38358 ft | 370 kts | 272° |
| 2026-05-05 12:03 | 41.72337 | -46.17452 | 38357 ft | 370 kts | 272° |
| 2026-05-05 12:04 | 41.72946 | -46.24299 | 38359 ft | 370 kts | 272° |
| 2026-05-05 12:04 | 41.73547 | -46.31102 | 38356 ft | 370 kts | 272° |
| 2026-05-05 12:05 | 41.74149 | -46.37958 | 38391 ft | 370 kts | 272° |
| 2026-05-05 12:05 | 41.74746 | -46.44803 | 38364 ft | 370 kts | 272° |
| 2026-05-05 12:06 | 41.75338 | -46.51649 | 38350 ft | 370 kts | 272° |
| 2026-05-05 12:06 | 41.75926 | -46.58490 | 38361 ft | 370 kts | 272° |
| 2026-05-05 12:07 | 41.76506 | -46.65292 | 38361 ft | 370 kts | 272° |
| 2026-05-05 12:07 | 41.77086 | -46.72132 | 38352 ft | 370 kts | 272° |
| 2026-05-05 12:08 | 41.77661 | -46.78971 | 38378 ft | 370 kts | 271° |
| 2026-05-05 12:08 | 41.78232 | -46.85805 | 38354 ft | 369 kts | 271° |
| 2026-05-05 12:09 | 41.78798 | -46.92636 | 38358 ft | 369 kts | 271° |
| 2026-05-05 12:09 | 41.79359 | -46.99463 | 38355 ft | 369 kts | 271° |
| 2026-05-05 12:10 | 41.79917 | -47.06288 | 38359 ft | 369 kts | 271° |
| 2026-05-05 12:10 | 41.80471 | -47.13124 | 38353 ft | 369 kts | 271° |
| 2026-05-05 12:11 | 41.81018 | -47.19917 | 38372 ft | 369 kts | 271° |
| 2026-05-05 12:11 | 41.81563 | -47.26745 | 38357 ft | 368 kts | 271° |
| 2026-05-05 12:12 | 41.82104 | -47.33565 | 38358 ft | 368 kts | 271° |
| 2026-05-05 12:12 | 41.82641 | -47.40401 | 38357 ft | 368 kts | 271° |
| 2026-05-05 12:13 | 41.83174 | -47.47228 | 38357 ft | 368 kts | 271° |
| 2026-05-05 12:13 | 41.83703 | -47.54063 | 38352 ft | 368 kts | 271° |
| 2026-05-05 12:14 | 41.84228 | -47.60899 | 38362 ft | 368 kts | 271° |
| 2026-05-05 12:14 | 41.84745 | -47.67675 | 38350 ft | 367 kts | 270° |
| 2026-05-05 12:15 | 41.85261 | -47.74489 | 38351 ft | 367 kts | 270° |
| 2026-05-05 12:15 | 41.85772 | -47.81312 | 38352 ft | 367 kts | 270° |
| 2026-05-05 12:16 | 41.86194 | -47.86980 | 38354 ft | 368 kts | 270° |
| 2026-05-05 12:16 | 41.86699 | -47.93801 | 38351 ft | 368 kts | 270° |
| 2026-05-05 12:17 | 41.87199 | -48.00629 | 38377 ft | 368 kts | 270° |
| 2026-05-05 12:17 | 41.87695 | -48.07435 | 38352 ft | 365 kts | 270° |
| 2026-05-05 12:18 | 41.88184 | -48.14218 | 38354 ft | 365 kts | 270° |
| 2026-05-05 12:18 | 41.88669 | -48.21001 | 38354 ft | 365 kts | 270° |
| 2026-05-05 12:19 | 41.89146 | -48.27739 | 38354 ft | 365 kts | 270° |
| 2026-05-05 12:19 | 41.89626 | -48.34566 | 38355 ft | 365 kts | 270° |
| 2026-05-05 12:20 | 41.90097 | -48.41309 | 38353 ft | 365 kts | 270° |
| 2026-05-05 12:20 | 41.90565 | -48.48083 | 38355 ft | 364 kts | 270° |
| 2026-05-05 12:21 | 41.91029 | -48.54859 | 38355 ft | 364 kts | 270° |
| 2026-05-05 12:21 | 41.91489 | -48.61634 | 38354 ft | 364 kts | 270° |
| 2026-05-05 12:22 | 41.91945 | -48.68408 | 38355 ft | 364 kts | 270° |
| 2026-05-05 12:22 | 41.92397 | -48.75182 | 38354 ft | 364 kts | 270° |
| 2026-05-05 12:23 | 41.92845 | -48.81958 | 38376 ft | 364 kts | 270° |
| 2026-05-05 12:23 | 41.93287 | -48.88669 | 38351 ft | 359 kts | 270° |
| 2026-05-05 12:24 | 41.93721 | -48.95351 | 38351 ft | 359 kts | 270° |
| 2026-05-05 12:24 | 41.94150 | -49.02026 | 38352 ft | 359 kts | 270° |
| 2026-05-05 12:25 | 41.94575 | -49.08700 | 38353 ft | 358 kts | 270° |
| 2026-05-05 12:25 | 41.94996 | -49.15362 | 38353 ft | 358 kts | 270° |
| 2026-05-05 12:26 | 41.95413 | -49.22031 | 38393 ft | 358 kts | 270° |
| 2026-05-05 12:26 | 41.95824 | -49.28631 | 38350 ft | 355 kts | 270° |
| 2026-05-05 12:27 | 41.96230 | -49.35239 | 38354 ft | 355 kts | 270° |
| 2026-05-05 12:27 | 41.96631 | -49.41844 | 38353 ft | 355 kts | 270° |
| 2026-05-05 12:28 | 41.97029 | -49.48448 | 38354 ft | 355 kts | 270° |
| 2026-05-05 12:28 | 41.97423 | -49.55050 | 38353 ft | 354 kts | 270° |
| 2026-05-05 12:29 | 41.97813 | -49.61654 | 38353 ft | 355 kts | 270° |
| 2026-05-05 12:29 | 41.98200 | -49.68235 | 38350 ft | 350 kts | 270° |
| 2026-05-05 12:30 | 41.98578 | -49.74735 | 38355 ft | 348 kts | 269° |
| 2026-05-05 12:30 | 41.98949 | -49.81221 | 38355 ft | 348 kts | 269° |
| 2026-05-05 12:31 | 41.99314 | -49.87660 | 38350 ft | 348 kts | 269° |
| 2026-05-05 12:31 | 41.99678 | -49.94146 | 38350 ft | 348 kts | 269° |
| 2026-05-05 12:32 | 42.00040 | -50.00631 | 38349 ft | 348 kts | 269° |
| 2026-05-05 12:32 | 42.00345 | -50.07109 | 38350 ft | 346 kts | 268° |
| 2026-05-05 12:33 | 42.00602 | -50.13548 | 38349 ft | 344 kts | 268° |
| 2026-05-05 12:33 | 42.00859 | -50.19984 | 38349 ft | 344 kts | 268° |
| 2026-05-05 12:34 | 42.01122 | -50.26411 | 38349 ft | 344 kts | 268° |
| 2026-05-05 12:34 | 42.01385 | -50.32838 | 38349 ft | 344 kts | 268° |
| 2026-05-05 12:35 | 42.01643 | -50.39222 | 38349 ft | 344 kts | 268° |
| 2026-05-05 12:35 | 42.01899 | -50.45648 | 38377 ft | 344 kts | 267° |
| 2026-05-05 12:36 | 42.02153 | -50.52056 | 38343 ft | 343 kts | 267° |
| 2026-05-05 12:36 | 42.02400 | -50.58453 | 38345 ft | 342 kts | 267° |
| 2026-05-05 12:37 | 42.02642 | -50.64850 | 38341 ft | 342 kts | 267° |
| 2026-05-05 12:37 | 42.02881 | -50.71202 | 38343 ft | 342 kts | 266° |
| 2026-05-05 12:38 | 42.03117 | -50.77595 | 38343 ft | 342 kts | 266° |
| 2026-05-05 12:38 | 42.03350 | -50.83990 | 38334 ft | 342 kts | 266° |
| 2026-05-05 12:39 | 42.03581 | -50.90388 | 38346 ft | 342 kts | 266° |
| 2026-05-05 12:39 | 42.03806 | -50.96792 | 38341 ft | 343 kts | 265° |
| 2026-05-05 12:40 | 42.04029 | -51.03197 | 38345 ft | 343 kts | 265° |
| 2026-05-05 12:40 | 42.04248 | -51.09605 | 38341 ft | 343 kts | 265° |
| 2026-05-05 12:41 | 42.04464 | -51.16009 | 38341 ft | 343 kts | 265° |
| 2026-05-05 12:41 | 42.04676 | -51.22411 | 38341 ft | 343 kts | 265° |
| 2026-05-05 12:42 | 42.04884 | -51.28814 | 38342 ft | 343 kts | 265° |
| 2026-05-05 12:42 | 42.05087 | -51.35199 | 38343 ft | 344 kts | 265° |
| 2026-05-05 12:43 | 42.05289 | -51.41645 | 38333 ft | 345 kts | 265° |
| 2026-05-05 12:43 | 42.05489 | -51.48101 | 38339 ft | 345 kts | 265° |
| 2026-05-05 12:44 | 42.05686 | -51.54560 | 38342 ft | 345 kts | 265° |
| 2026-05-05 12:44 | 42.05878 | -51.61020 | 38337 ft | 345 kts | 265° |
| 2026-05-05 12:45 | 42.06066 | -51.67476 | 38330 ft | 345 kts | 265° |
| 2026-05-05 12:45 | 42.06251 | -51.73941 | 38335 ft | 346 kts | 264° |
| 2026-05-05 12:46 | 42.06432 | -51.80454 | 38328 ft | 349 kts | 264° |
| 2026-05-05 12:46 | 42.06611 | -51.86979 | 38327 ft | 349 kts | 264° |
| 2026-05-05 12:47 | 42.06787 | -51.93472 | 38327 ft | 349 kts | 264° |
| 2026-05-05 12:47 | 42.06960 | -52.00006 | 38325 ft | 349 kts | 264° |
| 2026-05-05 12:48 | 42.07128 | -52.06538 | 38325 ft | 349 kts | 264° |
| 2026-05-05 12:48 | 42.07293 | -52.13071 | 38325 ft | 349 kts | 264° |
| 2026-05-05 12:49 | 42.07453 | -52.19648 | 38326 ft | 354 kts | 264° |
| 2026-05-05 12:49 | 42.07611 | -52.26293 | 38325 ft | 356 kts | 264° |
| 2026-05-05 12:50 | 42.07769 | -52.32954 | 38319 ft | 356 kts | 264° |
| 2026-05-05 12:50 | 42.07923 | -52.39615 | 38320 ft | 356 kts | 264° |
| 2026-05-05 12:51 | 42.08073 | -52.46278 | 38322 ft | 356 kts | 264° |
| 2026-05-05 12:51 | 42.08218 | -52.52947 | 38314 ft | 356 kts | 264° |
| 2026-05-05 12:52 | 42.08359 | -52.59608 | 38317 ft | 356 kts | 264° |
| 2026-05-05 12:52 | 42.08495 | -52.66232 | 38315 ft | 356 kts | 264° |
| 2026-05-05 12:53 | 42.08629 | -52.72891 | 38316 ft | 356 kts | 264° |
| 2026-05-05 12:53 | 42.08759 | -52.79547 | 38319 ft | 355 kts | 264° |
| 2026-05-05 12:54 | 42.08945 | -52.89528 | 38316 ft | 356 kts | 264° |
| 2026-05-05 12:55 | 42.09065 | -52.96192 | 38329 ft | 356 kts | 264° |
| 2026-05-05 12:55 | 42.09178 | -53.02865 | 38313 ft | 363 kts | 264° |
| 2026-05-05 12:56 | 42.09290 | -53.09684 | 38311 ft | 365 kts | 264° |
| 2026-05-05 12:56 | 42.09404 | -53.16518 | 38308 ft | 365 kts | 264° |
| 2026-05-05 12:57 | 42.09513 | -53.23358 | 38294 ft | 365 kts | 264° |
| 2026-05-05 12:57 | 42.09617 | -53.30185 | 38311 ft | 364 kts | 264° |
| 2026-05-05 12:58 | 42.09715 | -53.37006 | 38309 ft | 364 kts | 264° |
| 2026-05-05 12:58 | 42.09809 | -53.43840 | 38309 ft | 368 kts | 265° |
| 2026-05-05 12:59 | 42.09898 | -53.50767 | 38310 ft | 371 kts | 265° |
| 2026-05-05 12:59 | 42.09987 | -53.57724 | 38302 ft | 372 kts | 265° |
| 2026-05-05 13:00 | 42.10113 | -53.68113 | 38313 ft | 372 kts | 265° |
| 2026-05-05 13:01 | 42.10264 | -53.82032 | 38324 ft | 372 kts | 265° |
| 2026-05-05 13:01 | 42.10332 | -53.89028 | 38301 ft | 375 kts | 265° |
| 2026-05-05 13:02 | 42.10398 | -53.96073 | 38309 ft | 376 kts | 265° |
| 2026-05-05 13:02 | 42.10460 | -54.03065 | 38300 ft | 376 kts | 265° |
| 2026-05-05 13:03 | 42.10518 | -54.10113 | 38299 ft | 376 kts | 265° |
| 2026-05-05 13:03 | 42.10571 | -54.17151 | 38296 ft | 376 kts | 265° |
| 2026-05-05 13:04 | 42.10619 | -54.24195 | 38346 ft | 376 kts | 265° |
| 2026-05-05 13:04 | 42.10662 | -54.31269 | 38300 ft | 380 kts | 265° |
| 2026-05-05 13:05 | 42.10702 | -54.38393 | 38292 ft | 380 kts | 265° |
| 2026-05-05 13:05 | 42.10739 | -54.45523 | 38290 ft | 381 kts | 265° |
| 2026-05-05 13:06 | 42.10771 | -54.52654 | 38291 ft | 381 kts | 265° |
| 2026-05-05 13:06 | 42.10798 | -54.59786 | 38292 ft | 381 kts | 265° |
| 2026-05-05 13:07 | 42.10821 | -54.66876 | 38312 ft | 381 kts | 265° |
| 2026-05-05 13:07 | 42.10838 | -54.74046 | 38290 ft | 384 kts | 265° |
| 2026-05-05 13:08 | 42.10851 | -54.81256 | 38290 ft | 385 kts | 265° |
| 2026-05-05 13:08 | 42.10862 | -54.88471 | 38287 ft | 385 kts | 265° |
| 2026-05-05 13:09 | 42.10867 | -54.94464 | 38290 ft | 385 kts | 265° |
| 2026-05-05 13:09 | 42.10868 | -55.01680 | 38284 ft | 385 kts | 265° |
| 2026-05-05 13:10 | 42.10865 | -55.08903 | 38310 ft | 386 kts | 265° |
| 2026-05-05 13:10 | 42.10852 | -55.17369 | 38282 ft | 391 kts | 265° |
| 2026-05-05 13:11 | 42.10842 | -55.23506 | 38282 ft | 392 kts | 265° |
| 2026-05-05 13:11 | 42.10826 | -55.30842 | 38284 ft | 392 kts | 265° |
| 2026-05-05 13:12 | 42.10805 | -55.38180 | 38279 ft | 392 kts | 265° |
| 2026-05-05 13:12 | 42.10779 | -55.45469 | 38279 ft | 392 kts | 265° |
| 2026-05-05 13:13 | 42.10747 | -55.52812 | 38284 ft | 393 kts | 265° |
| 2026-05-05 13:13 | 42.10708 | -55.60218 | 38279 ft | 397 kts | 265° |
| 2026-05-05 13:14 | 42.10668 | -55.67670 | 38276 ft | 398 kts | 265° |
| 2026-05-05 13:14 | 42.10623 | -55.75125 | 38276 ft | 398 kts | 265° |
| 2026-05-05 13:15 | 42.10572 | -55.82573 | 38279 ft | 398 kts | 265° |
| 2026-05-05 13:15 | 42.10516 | -55.90029 | 38276 ft | 398 kts | 265° |
| 2026-05-05 13:16 | 42.10455 | -55.97489 | 38276 ft | 400 kts | 265° |
| 2026-05-05 13:16 | 42.10389 | -56.04988 | 38274 ft | 401 kts | 265° |
| 2026-05-05 13:17 | 42.10318 | -56.12504 | 38275 ft | 401 kts | 265° |
| 2026-05-05 13:17 | 42.10243 | -56.19972 | 38270 ft | 401 kts | 265° |
| 2026-05-05 13:18 | 42.10162 | -56.27486 | 38273 ft | 401 kts | 265° |
| 2026-05-05 13:18 | 42.10077 | -56.35002 | 38297 ft | 402 kts | 266° |
| 2026-05-05 13:19 | 42.09985 | -56.42541 | 38274 ft | 403 kts | 266° |
| 2026-05-05 13:19 | 42.09889 | -56.50094 | 38273 ft | 404 kts | 266° |
| 2026-05-05 13:20 | 42.09789 | -56.57648 | 38270 ft | 404 kts | 266° |
| 2026-05-05 13:20 | 42.09683 | -56.65206 | 38271 ft | 404 kts | 265° |
| 2026-05-05 13:21 | 42.09572 | -56.72767 | 38271 ft | 403 kts | 265° |
| 2026-05-05 13:21 | 42.09456 | -56.80315 | 38271 ft | 403 kts | 265° |
| 2026-05-05 13:22 | 42.09335 | -56.87869 | 38267 ft | 404 kts | 265° |
| 2026-05-05 13:22 | 42.09210 | -56.95384 | 38267 ft | 404 kts | 265° |
| 2026-05-05 13:23 | 42.09079 | -57.02951 | 38271 ft | 404 kts | 265° |
| 2026-05-05 13:23 | 42.08943 | -57.10528 | 38270 ft | 404 kts | 265° |
| 2026-05-05 13:24 | 42.08802 | -57.18093 | 38285 ft | 404 kts | 265° |
| 2026-05-05 13:24 | 42.08656 | -57.25665 | 38265 ft | 405 kts | 266° |
| 2026-05-05 13:25 | 42.08506 | -57.33197 | 38267 ft | 405 kts | 265° |
| 2026-05-05 13:25 | 42.08350 | -57.40779 | 38265 ft | 405 kts | 265° |
| 2026-05-05 13:26 | 42.08189 | -57.48365 | 38260 ft | 405 kts | 265° |
| 2026-05-05 13:26 | 42.08022 | -57.55952 | 38264 ft | 406 kts | 265° |
| 2026-05-05 13:27 | 42.07851 | -57.63545 | 38266 ft | 405 kts | 266° |
| 2026-05-05 13:27 | 42.07675 | -57.71131 | 38260 ft | 405 kts | 266° |
| 2026-05-05 13:28 | 42.07494 | -57.78717 | 38260 ft | 405 kts | 265° |
| 2026-05-05 13:28 | 42.07309 | -57.86241 | 38257 ft | 405 kts | 265° |
| 2026-05-05 13:29 | 42.07118 | -57.93818 | 38257 ft | 405 kts | 265° |
| 2026-05-05 13:29 | 42.06922 | -58.01389 | 38257 ft | 405 kts | 265° |
| 2026-05-05 13:30 | 42.06721 | -58.08966 | 38260 ft | 405 kts | 265° |
| 2026-05-05 13:30 | 42.06515 | -58.16534 | 38256 ft | 405 kts | 265° |
| 2026-05-05 13:31 | 42.06305 | -58.24105 | 38251 ft | 405 kts | 265° |
| 2026-05-05 13:31 | 42.06089 | -58.31673 | 38255 ft | 405 kts | 265° |
| 2026-05-05 13:32 | 42.05868 | -58.39239 | 38245 ft | 405 kts | 265° |
| 2026-05-05 13:32 | 42.05644 | -58.46755 | 38256 ft | 405 kts | 265° |
| 2026-05-05 13:33 | 42.05413 | -58.54343 | 38247 ft | 406 kts | 265° |
| 2026-05-05 13:33 | 42.05176 | -58.61939 | 38249 ft | 406 kts | 265° |
| 2026-05-05 13:34 | 42.04935 | -58.69533 | 38254 ft | 406 kts | 265° |
| 2026-05-05 13:34 | 42.04689 | -58.77127 | 38248 ft | 406 kts | 265° |
| 2026-05-05 13:35 | 42.04437 | -58.84723 | 38244 ft | 406 kts | 265° |
| 2026-05-05 13:35 | 42.04180 | -58.92332 | 38239 ft | 407 kts | 265° |
| 2026-05-05 13:36 | 42.03919 | -58.99906 | 38243 ft | 408 kts | 265° |
| 2026-05-05 13:36 | 42.03651 | -59.07532 | 38244 ft | 408 kts | 265° |
| 2026-05-05 13:37 | 42.03379 | -59.15156 | 38246 ft | 408 kts | 265° |
| 2026-05-05 13:37 | 42.03101 | -59.22780 | 38232 ft | 408 kts | 265° |
| 2026-05-05 13:38 | 42.02818 | -59.30416 | 38241 ft | 408 kts | 265° |
| 2026-05-05 13:38 | 42.02528 | -59.38071 | 38238 ft | 411 kts | 265° |
| 2026-05-05 13:39 | 42.02234 | -59.45733 | 38231 ft | 411 kts | 265° |
| 2026-05-05 13:39 | 42.01933 | -59.53435 | 38225 ft | 411 kts | 265° |
| 2026-05-05 13:40 | 42.01629 | -59.61072 | 38235 ft | 411 kts | 265° |
| 2026-05-05 13:40 | 42.01319 | -59.68757 | 38227 ft | 411 kts | 265° |
| 2026-05-05 13:41 | 42.01001 | -59.76461 | 38227 ft | 415 kts | 265° |
| 2026-05-05 13:41 | 42.00676 | -59.84224 | 38208 ft | 417 kts | 265° |
| 2026-05-05 13:42 | 42.00347 | -59.91997 | 38227 ft | 416 kts | 265° |
| 2026-05-05 13:42 | 42.00012 | -59.99768 | 38230 ft | 416 kts | 265° |
| 2026-05-05 13:43 | 41.99457 | -60.07510 | 38220 ft | 415 kts | 261° |
| 2026-05-05 13:43 | 41.98645 | -60.15147 | 38225 ft | 416 kts | 261° |
| 2026-05-05 13:44 | 41.97832 | -60.22876 | 38220 ft | 419 kts | 262° |
| 2026-05-05 13:44 | 41.97061 | -60.30644 | 38218 ft | 419 kts | 262° |
| 2026-05-05 13:45 | 41.96305 | -60.38415 | 38205 ft | 419 kts | 262° |
| 2026-05-05 13:45 | 41.95546 | -60.46186 | 38222 ft | 419 kts | 262° |
| 2026-05-05 13:46 | 41.94781 | -60.53940 | 38218 ft | 419 kts | 262° |
| 2026-05-05 13:46 | 41.94008 | -60.61695 | 38211 ft | 420 kts | 262° |
| 2026-05-05 13:47 | 41.93228 | -60.69477 | 38211 ft | 421 kts | 262° |
| 2026-05-05 13:47 | 41.92442 | -60.77271 | 38214 ft | 421 kts | 262° |
| 2026-05-05 13:48 | 41.91655 | -60.85008 | 38211 ft | 421 kts | 262° |
| 2026-05-05 13:48 | 41.90857 | -60.92801 | 38216 ft | 421 kts | 262° |
| 2026-05-05 13:49 | 41.90056 | -61.00576 | 38204 ft | 421 kts | 262° |
| 2026-05-05 13:49 | 41.89248 | -61.08366 | 38208 ft | 421 kts | 262° |
| 2026-05-05 13:50 | 41.88436 | -61.16138 | 38201 ft | 421 kts | 262° |
| 2026-05-05 13:50 | 41.87619 | -61.23908 | 38207 ft | 421 kts | 262° |
| 2026-05-05 13:51 | 41.86796 | -61.31683 | 38204 ft | 421 kts | 262° |
| 2026-05-05 13:51 | 41.85968 | -61.39452 | 38205 ft | 420 kts | 261° |
| 2026-05-05 13:52 | 41.85135 | -61.47215 | 38213 ft | 420 kts | 262° |
| 2026-05-05 13:52 | 41.84303 | -61.54922 | 38209 ft | 421 kts | 262° |
| 2026-05-05 13:53 | 41.83459 | -61.62691 | 38207 ft | 421 kts | 262° |
| 2026-05-05 13:53 | 41.82609 | -61.70466 | 38199 ft | 421 kts | 262° |
| 2026-05-05 13:54 | 41.81753 | -61.78237 | 38208 ft | 421 kts | 262° |
| 2026-05-05 13:54 | 41.80893 | -61.86001 | 38204 ft | 421 kts | 262° |
| 2026-05-05 13:55 | 41.80027 | -61.93768 | 38203 ft | 421 kts | 262° |
| 2026-05-05 13:55 | 41.79157 | -62.01521 | 38202 ft | 421 kts | 262° |
| 2026-05-05 13:56 | 41.78283 | -62.09275 | 38204 ft | 421 kts | 262° |
| 2026-05-05 13:56 | 41.77408 | -62.16976 | 38202 ft | 421 kts | 262° |
| 2026-05-05 13:57 | 41.76522 | -62.24730 | 38202 ft | 421 kts | 262° |
| 2026-05-05 13:57 | 41.75631 | -62.32477 | 38202 ft | 421 kts | 262° |
| 2026-05-05 13:58 | 41.74734 | -62.40228 | 38197 ft | 421 kts | 262° |
| 2026-05-05 13:58 | 41.73833 | -62.47973 | 38197 ft | 421 kts | 262° |
| 2026-05-05 13:59 | 41.72472 | -62.59579 | 38201 ft | 420 kts | 262° |
| 2026-05-05 14:00 | 41.71256 | -62.69864 | 38198 ft | 420 kts | 261° |
| 2026-05-05 14:00 | 41.70180 | -62.78891 | 38205 ft | 420 kts | 262° |
| 2026-05-05 14:01 | 41.69259 | -62.86572 | 38195 ft | 421 kts | 262° |
| 2026-05-05 14:01 | 41.68326 | -62.94307 | 38192 ft | 421 kts | 261° |
| 2026-05-05 14:02 | 41.67388 | -63.02039 | 38196 ft | 421 kts | 261° |
| 2026-05-05 14:02 | 41.66446 | -63.09758 | 38196 ft | 420 kts | 261° |
| 2026-05-05 14:03 | 41.65499 | -63.17470 | 38188 ft | 420 kts | 261° |
| 2026-05-05 14:03 | 41.64702 | -63.23936 | 38193 ft | 421 kts | 261° |
| 2026-05-05 14:04 | 41.63752 | -63.31595 | 38191 ft | 421 kts | 261° |
| 2026-05-05 14:04 | 41.62789 | -63.39310 | 38188 ft | 421 kts | 261° |
| 2026-05-05 14:05 | 41.61821 | -63.47027 | 38192 ft | 421 kts | 261° |
| 2026-05-05 14:05 | 41.60848 | -63.54747 | 38189 ft | 422 kts | 261° |
| 2026-05-05 14:06 | 41.59867 | -63.62481 | 38186 ft | 422 kts | 261° |
| 2026-05-05 14:06 | 41.58882 | -63.70202 | 38186 ft | 422 kts | 261° |
| 2026-05-05 14:07 | 41.57891 | -63.77925 | 38188 ft | 422 kts | 261° |
| 2026-05-05 14:07 | 41.56894 | -63.85654 | 38186 ft | 422 kts | 261° |
| 2026-05-05 14:08 | 41.55892 | -63.93386 | 38183 ft | 422 kts | 261° |
| 2026-05-05 14:08 | 41.54885 | -64.01109 | 38185 ft | 422 kts | 261° |
| 2026-05-05 14:09 | 41.53873 | -64.08823 | 38184 ft | 422 kts | 261° |
| 2026-05-05 14:09 | 41.52857 | -64.16535 | 38183 ft | 422 kts | 261° |
| 2026-05-05 14:10 | 41.51833 | -64.24262 | 38181 ft | 422 kts | 261° |
| 2026-05-05 14:10 | 41.50812 | -64.31922 | 38180 ft | 422 kts | 261° |
| 2026-05-05 14:11 | 41.49778 | -64.39646 | 38181 ft | 423 kts | 261° |
| 2026-05-05 14:11 | 41.48737 | -64.47377 | 38161 ft | 423 kts | 261° |
| 2026-05-05 14:12 | 41.47691 | -64.55101 | 38179 ft | 423 kts | 260° |
| 2026-05-05 14:12 | 41.46642 | -64.62815 | 38176 ft | 423 kts | 260° |
| 2026-05-05 14:13 | 41.45587 | -64.70524 | 38174 ft | 423 kts | 260° |
| 2026-05-05 14:13 | 41.44534 | -64.78184 | 38169 ft | 423 kts | 260° |
| 2026-05-05 14:14 | 41.43469 | -64.85890 | 38175 ft | 423 kts | 260° |
| 2026-05-05 14:14 | 41.42399 | -64.93592 | 38176 ft | 423 kts | 260° |
| 2026-05-05 14:15 | 41.41324 | -65.01289 | 38162 ft | 423 kts | 260° |
| 2026-05-05 14:15 | 41.40243 | -65.08992 | 38173 ft | 423 kts | 260° |
| 2026-05-05 14:16 | 41.39157 | -65.16689 | 38170 ft | 423 kts | 260° |
| 2026-05-05 14:16 | 41.38064 | -65.24398 | 38167 ft | 423 kts | 260° |
| 2026-05-05 14:17 | 41.36968 | -65.32093 | 38172 ft | 423 kts | 260° |
| 2026-05-05 14:17 | 41.35870 | -65.39761 | 38162 ft | 425 kts | 260° |
| 2026-05-05 14:18 | 41.34758 | -65.47488 | 38165 ft | 425 kts | 260° |
| 2026-05-05 14:18 | 41.33642 | -65.55205 | 38155 ft | 424 kts | 259° |
| 2026-05-05 14:19 | 41.32523 | -65.62901 | 38163 ft | 423 kts | 259° |
| 2026-05-05 14:19 | 41.31397 | -65.70606 | 38157 ft | 425 kts | 259° |
| 2026-05-05 14:20 | 41.30265 | -65.78322 | 38154 ft | 425 kts | 259° |
| 2026-05-05 14:20 | 41.29127 | -65.86034 | 38157 ft | 425 kts | 259° |
| 2026-05-05 14:21 | 41.27983 | -65.93753 | 38158 ft | 425 kts | 259° |
| 2026-05-05 14:21 | 41.26839 | -66.01438 | 38143 ft | 427 kts | 259° |
| 2026-05-05 14:22 | 41.25679 | -66.09185 | 38150 ft | 427 kts | 259° |
| 2026-05-05 14:22 | 41.24518 | -66.16904 | 38143 ft | 426 kts | 259° |
| 2026-05-05 14:23 | 41.23352 | -66.24622 | 38143 ft | 426 kts | 259° |
| 2026-05-05 14:23 | 41.22180 | -66.32344 | 38143 ft | 427 kts | 259° |
| 2026-05-05 14:24 | 41.20999 | -66.40085 | 38141 ft | 428 kts | 259° |
| 2026-05-05 14:24 | 41.19812 | -66.47830 | 38140 ft | 428 kts | 259° |
| 2026-05-05 14:25 | 41.18620 | -66.55566 | 38138 ft | 428 kts | 259° |
| 2026-05-05 14:25 | 41.17422 | -66.63312 | 38137 ft | 428 kts | 258° |
| 2026-05-05 14:26 | 41.16227 | -66.71001 | 38135 ft | 428 kts | 258° |
| 2026-05-05 14:26 | 41.15018 | -66.78736 | 38129 ft | 428 kts | 258° |
| 2026-05-05 14:27 | 41.13805 | -66.86468 | 38130 ft | 428 kts | 258° |
| 2026-05-05 14:27 | 41.12585 | -66.94211 | 38127 ft | 429 kts | 258° |
| 2026-05-05 14:28 | 41.11966 | -67.02063 | 38130 ft | 430 kts | 272° |
| 2026-05-05 14:28 | 41.12417 | -67.09968 | 38124 ft | 430 kts | 275° |
| 2026-05-05 14:29 | 41.13059 | -67.17867 | 38116 ft | 431 kts | 275° |
| 2026-05-05 14:29 | 41.13718 | -67.25760 | 38116 ft | 431 kts | 275° |
| 2026-05-05 14:30 | 41.14354 | -67.33682 | 38113 ft | 432 kts | 275° |
| 2026-05-05 14:30 | 41.14972 | -67.41600 | 38110 ft | 431 kts | 275° |
| 2026-05-05 14:31 | 41.15576 | -67.49459 | 38110 ft | 431 kts | 275° |
| 2026-05-05 14:31 | 41.16180 | -67.57373 | 38108 ft | 431 kts | 275° |
| 2026-05-05 14:32 | 41.16779 | -67.65300 | 38102 ft | 432 kts | 275° |
| 2026-05-05 14:32 | 41.17374 | -67.73235 | 38099 ft | 432 kts | 275° |
| 2026-05-05 14:33 | 41.17965 | -67.81179 | 38094 ft | 432 kts | 274° |
| 2026-05-05 14:33 | 41.18545 | -67.89068 | 38094 ft | 432 kts | 274° |
| 2026-05-05 14:34 | 41.19050 | -67.97014 | 38088 ft | 432 kts | 273° |
| 2026-05-05 14:34 | 41.19443 | -68.04972 | 38094 ft | 432 kts | 272° |
| 2026-05-05 14:35 | 41.19834 | -68.12929 | 38092 ft | 432 kts | 273° |
| 2026-05-05 14:35 | 41.20240 | -68.20887 | 38092 ft | 432 kts | 273° |
| 2026-05-05 14:36 | 41.20648 | -68.28845 | 38086 ft | 432 kts | 273° |
| 2026-05-05 14:36 | 41.21052 | -68.36792 | 38083 ft | 431 kts | 273° |
| 2026-05-05 14:37 | 41.21450 | -68.44753 | 38083 ft | 432 kts | 272° |
| 2026-05-05 14:37 | 41.21842 | -68.52704 | 38078 ft | 431 kts | 272° |
| 2026-05-05 14:38 | 41.22225 | -68.60606 | 38078 ft | 432 kts | 272° |
| 2026-05-05 14:38 | 41.22606 | -68.68566 | 38078 ft | 432 kts | 272° |
| 2026-05-05 14:39 | 41.22981 | -68.76523 | 38072 ft | 431 kts | 272° |
| 2026-05-05 14:39 | 41.23351 | -68.84488 | 38072 ft | 432 kts | 272° |
| 2026-05-05 14:40 | 41.23715 | -68.92449 | 38067 ft | 432 kts | 272° |
| 2026-05-05 14:40 | 41.24074 | -69.00408 | 38059 ft | 432 kts | 272° |
| 2026-05-05 14:41 | 41.24427 | -69.08369 | 38064 ft | 432 kts | 272° |
| 2026-05-05 14:41 | 41.24775 | -69.16338 | 38059 ft | 432 kts | 272° |
| 2026-05-05 14:42 | 41.25117 | -69.24299 | 38059 ft | 432 kts | 272° |
| 2026-05-05 14:42 | 41.25455 | -69.32278 | 38053 ft | 432 kts | 272° |
| 2026-05-05 14:43 | 41.25786 | -69.40245 | 38045 ft | 432 kts | 272° |
| 2026-05-05 14:43 | 41.26111 | -69.48168 | 38045 ft | 432 kts | 272° |
| 2026-05-05 14:44 | 41.26431 | -69.56143 | 38039 ft | 432 kts | 272° |
| 2026-05-05 14:44 | 41.26747 | -69.64127 | 38038 ft | 432 kts | 272° |
| 2026-05-05 14:45 | 41.27057 | -69.72114 | 38029 ft | 433 kts | 272° |
| 2026-05-05 14:45 | 41.27361 | -69.80100 | 38021 ft | 432 kts | 272° |
| 2026-05-05 14:46 | 41.27660 | -69.88084 | 38021 ft | 433 kts | 272° |
| 2026-05-05 14:46 | 41.27954 | -69.96081 | 38018 ft | 433 kts | 272° |
| 2026-05-05 14:47 | 41.27740 | -70.04051 | 38017 ft | 431 kts | 259° |
| 2026-05-05 14:47 | 41.26389 | -70.11818 | 38012 ft | 432 kts | 255° |
| 2026-05-05 14:48 | 41.24820 | -70.19513 | 38017 ft | 431 kts | 254° |
| 2026-05-05 14:48 | 41.23218 | -70.27189 | 38017 ft | 431 kts | 254° |
| 2026-05-05 14:49 | 41.21638 | -70.34819 | 38011 ft | 431 kts | 255° |
| 2026-05-05 14:49 | 41.20056 | -70.42496 | 38010 ft | 431 kts | 255° |
| 2026-05-05 14:50 | 41.18472 | -70.50171 | 38007 ft | 431 kts | 254° |
| 2026-05-05 14:50 | 41.16882 | -70.57847 | 38010 ft | 431 kts | 254° |
| 2026-05-05 14:51 | 41.15284 | -70.65531 | 38008 ft | 432 kts | 254° |
| 2026-05-05 14:51 | 41.13679 | -70.73217 | 38011 ft | 432 kts | 254° |
| 2026-05-05 14:52 | 41.12070 | -70.80896 | 38007 ft | 432 kts | 254° |
| 2026-05-05 14:52 | 41.10457 | -70.88579 | 38010 ft | 432 kts | 254° |
| 2026-05-05 14:53 | 41.08837 | -70.96255 | 38014 ft | 432 kts | 254° |
| 2026-05-05 14:53 | 41.07224 | -71.03859 | 38003 ft | 432 kts | 254° |
| 2026-05-05 14:54 | 41.05598 | -71.11526 | 38004 ft | 432 kts | 254° |
| 2026-05-05 14:54 | 41.03962 | -71.19183 | 38002 ft | 432 kts | 253° |
| 2026-05-05 14:55 | 41.02320 | -71.26834 | 37998 ft | 432 kts | 253° |
| 2026-05-05 14:55 | 41.00676 | -71.34477 | 37995 ft | 432 kts | 253° |
| 2026-05-05 14:56 | 40.99221 | -71.40792 | 37998 ft | 432 kts | 251° |
| 2026-05-05 14:56 | 40.96870 | -71.49488 | 37997 ft | 432 kts | 250° |
| 2026-05-05 14:57 | 40.95158 | -71.55740 | 38006 ft | 432 kts | 250° |
| 2026-05-05 14:57 | 40.93148 | -71.63224 | 37996 ft | 432 kts | 250° |
| 2026-05-05 14:58 | 40.91199 | -71.70687 | 37990 ft | 433 kts | 251° |
| 2026-05-05 14:58 | 40.89254 | -71.78213 | 37990 ft | 433 kts | 251° |
| 2026-05-05 14:59 | 40.87297 | -71.85746 | 37987 ft | 433 kts | 250° |
| 2026-05-05 14:59 | 40.85333 | -71.93262 | 37991 ft | 433 kts | 250° |
| 2026-05-05 15:00 | 40.83364 | -72.00766 | 37991 ft | 432 kts | 250° |
| 2026-05-05 15:00 | 40.81389 | -72.08270 | 37994 ft | 432 kts | 250° |
| 2026-05-05 15:01 | 40.79411 | -72.15760 | 37983 ft | 432 kts | 250° |
| 2026-05-05 15:01 | 40.77447 | -72.23229 | 38002 ft | 433 kts | 251° |
| 2026-05-05 15:02 | 40.75609 | -72.30800 | 37999 ft | 434 kts | 252° |
| 2026-05-05 15:02 | 40.73807 | -72.38400 | 38004 ft | 434 kts | 252° |
| 2026-05-05 15:03 | 40.71984 | -72.45984 | 38001 ft | 434 kts | 251° |
| 2026-05-05 15:03 | 40.70141 | -72.53557 | 37996 ft | 434 kts | 251° |
| 2026-05-05 15:04 | 40.68294 | -72.61120 | 37999 ft | 433 kts | 251° |
| 2026-05-05 15:04 | 40.66440 | -72.68667 | 37990 ft | 432 kts | 251° |
| 2026-05-05 15:05 | 40.63648 | -72.79975 | 37996 ft | 433 kts | 251° |
| 2026-05-05 15:06 | 40.61792 | -72.87467 | 37988 ft | 433 kts | 251° |
| 2026-05-05 15:06 | 40.59921 | -72.95005 | 37991 ft | 433 kts | 251° |
| 2026-05-05 15:07 | 40.58044 | -73.02540 | 37988 ft | 434 kts | 251° |
| 2026-05-05 15:07 | 40.56160 | -73.10081 | 37971 ft | 434 kts | 251° |
| 2026-05-05 15:08 | 40.54271 | -73.17617 | 37971 ft | 434 kts | 251° |
| 2026-05-05 15:08 | 40.52378 | -73.25147 | 37974 ft | 434 kts | 251° |
| 2026-05-05 15:09 | 40.50489 | -73.32634 | 37975 ft | 434 kts | 251° |
| 2026-05-05 15:09 | 40.48583 | -73.40166 | 37973 ft | 435 kts | 251° |
| 2026-05-05 15:10 | 40.46672 | -73.47697 | 37975 ft | 435 kts | 251° |
| 2026-05-05 15:10 | 40.44756 | -73.55221 | 37972 ft | 435 kts | 251° |
| 2026-05-05 15:11 | 40.42840 | -73.62741 | 37973 ft | 435 kts | 251° |
| 2026-05-05 15:11 | 40.40906 | -73.70262 | 37971 ft | 434 kts | 251° |
| 2026-05-05 15:12 | 40.38972 | -73.77765 | 37970 ft | 434 kts | 251° |
| 2026-05-05 15:12 | 40.37033 | -73.85273 | 37967 ft | 435 kts | 251° |
| 2026-05-05 15:13 | 40.35087 | -73.92790 | 37967 ft | 435 kts | 251° |
| 2026-05-05 15:13 | 40.33140 | -74.00304 | 37963 ft | 435 kts | 251° |
| 2026-05-05 15:14 | 40.31190 | -74.07797 | 37969 ft | 434 kts | 251° |
| 2026-05-05 15:14 | 40.29241 | -74.15267 | 37970 ft | 433 kts | 251° |
| 2026-05-05 15:15 | 40.27290 | -74.22728 | 37967 ft | 433 kts | 251° |
| 2026-05-05 15:15 | 40.25331 | -74.30193 | 37967 ft | 433 kts | 251° |
| 2026-05-05 15:16 | 40.23382 | -74.37602 | 37962 ft | 433 kts | 251° |
| 2026-05-05 15:16 | 40.21495 | -74.45081 | 37956 ft | 432 kts | 256° |
| 2026-05-05 15:17 | 40.20945 | -74.52876 | 37941 ft | 433 kts | 274° |
| 2026-05-05 15:17 | 40.21998 | -74.60637 | 37936 ft | 434 kts | 281° |
| 2026-05-05 15:18 | 40.23256 | -74.68365 | 37934 ft | 434 kts | 281° |
| 2026-05-05 15:18 | 40.24497 | -74.76108 | 37935 ft | 434 kts | 280° |
| 2026-05-05 15:19 | 40.25719 | -74.83802 | 37935 ft | 434 kts | 280° |
| 2026-05-05 15:19 | 40.26943 | -74.91547 | 37934 ft | 434 kts | 281° |
| 2026-05-05 15:20 | 40.28213 | -74.99283 | 37932 ft | 434 kts | 281° |
| 2026-05-05 15:20 | 40.29481 | -75.07014 | 37921 ft | 434 kts | 281° |
| 2026-05-05 15:21 | 40.30738 | -75.14736 | 37925 ft | 432 kts | 281° |
| 2026-05-05 15:21 | 40.31985 | -75.22437 | 37925 ft | 432 kts | 281° |
| 2026-05-05 15:22 | 40.33225 | -75.30134 | 37944 ft | 432 kts | 281° |
| 2026-05-05 15:22 | 40.34452 | -75.37782 | 37932 ft | 431 kts | 280° |
| 2026-05-05 15:23 | 40.35681 | -75.45480 | 37863 ft | 431 kts | 280° |
| 2026-05-05 15:23 | 40.36291 | -75.49316 | 37593 ft | 429 kts | 281° |
| 2026-05-05 15:23 | 40.36899 | -75.53143 | 37335 ft | 429 kts | 281° |
| 2026-05-05 15:23 | 40.37388 | -75.56994 | 37065 ft | 429 kts | 274° |
| 2026-05-05 15:24 | 40.37387 | -75.60897 | 36798 ft | 428 kts | 264° |
| 2026-05-05 15:24 | 40.36786 | -75.64721 | 36530 ft | 429 kts | 252° |
| 2026-05-05 15:24 | 40.35652 | -75.68330 | 36111 ft | 429 kts | 245° |
| 2026-05-05 15:24 | 40.34315 | -75.71834 | 35536 ft | 430 kts | 244° |
| 2026-05-05 15:25 | 40.32945 | -75.75340 | 34855 ft | 434 kts | 245° |
| 2026-05-05 15:25 | 40.31567 | -75.78872 | 34148 ft | 437 kts | 245° |
| 2026-05-05 15:25 | 40.30183 | -75.82433 | 33369 ft | 440 kts | 245° |
| 2026-05-05 15:25 | 40.28795 | -75.86011 | 32597 ft | 442 kts | 245° |
| 2026-05-05 15:26 | 40.27402 | -75.89605 | 31819 ft | 444 kts | 245° |
| 2026-05-05 15:26 | 40.26001 | -75.93217 | 31164 ft | 443 kts | 246° |
| 2026-05-05 15:26 | 40.24610 | -75.96799 | 30618 ft | 440 kts | 246° |
| 2026-05-05 15:26 | 40.23227 | -76.00357 | 30068 ft | 437 kts | 246° |
| 2026-05-05 15:27 | 40.21870 | -76.03846 | 29466 ft | 434 kts | 246° |
| 2026-05-05 15:27 | 40.20505 | -76.07353 | 28899 ft | 430 kts | 246° |
| 2026-05-05 15:27 | 40.19153 | -76.10821 | 28350 ft | 426 kts | 245° |
| 2026-05-05 15:27 | 40.17813 | -76.14255 | 27797 ft | 422 kts | 245° |
| 2026-05-05 15:28 | 40.16484 | -76.17658 | 27260 ft | 418 kts | 245° |
| 2026-05-05 15:28 | 40.15167 | -76.21027 | 26715 ft | 415 kts | 245° |
| 2026-05-05 15:28 | 40.13859 | -76.24368 | 26173 ft | 411 kts | 245° |
| 2026-05-05 15:28 | 40.12560 | -76.27684 | 25628 ft | 409 kts | 245° |
| 2026-05-05 15:29 | 40.11255 | -76.30965 | 25092 ft | 406 kts | 243° |
| 2026-05-05 15:29 | 40.09813 | -76.34126 | 24550 ft | 404 kts | 240° |
| 2026-05-05 15:29 | 40.08334 | -76.37239 | 24004 ft | 401 kts | 240° |
| 2026-05-05 15:29 | 40.06873 | -76.40334 | 23467 ft | 399 kts | 240° |
| 2026-05-05 15:30 | 40.05432 | -76.43411 | 22854 ft | 396 kts | 240° |
| 2026-05-05 15:30 | 40.04009 | -76.46466 | 22316 ft | 391 kts | 241° |
| 2026-05-05 15:30 | 40.02610 | -76.49486 | 21790 ft | 387 kts | 241° |
| 2026-05-05 15:30 | 40.01222 | -76.52469 | 21265 ft | 383 kts | 241° |
| 2026-05-05 15:31 | 39.99849 | -76.55422 | 20734 ft | 379 kts | 241° |
| 2026-05-05 15:31 | 39.98489 | -76.58347 | 20216 ft | 375 kts | 241° |
| 2026-05-05 15:31 | 39.97142 | -76.61244 | 19703 ft | 372 kts | 241° |
| 2026-05-05 15:31 | 39.95812 | -76.64116 | 19200 ft | 369 kts | 241° |
| 2026-05-05 15:32 | 39.94488 | -76.66966 | 18693 ft | 366 kts | 241° |
| 2026-05-05 15:32 | 39.93172 | -76.69786 | 18190 ft | 363 kts | 241° |
| 2026-05-05 15:32 | 39.91865 | -76.72583 | 17632 ft | 359 kts | 240° |
| 2026-05-05 15:32 | 39.90574 | -76.75347 | 17119 ft | 355 kts | 240° |
| 2026-05-05 15:33 | 39.89299 | -76.78076 | 16592 ft | 351 kts | 240° |
| 2026-05-05 15:33 | 39.88038 | -76.80771 | 16147 ft | 346 kts | 240° |
| 2026-05-05 15:33 | 39.86793 | -76.83433 | 15665 ft | 342 kts | 240° |
| 2026-05-05 15:33 | 39.85564 | -76.86061 | 15178 ft | 339 kts | 240° |
| 2026-05-05 15:34 | 39.84343 | -76.88665 | 14710 ft | 336 kts | 239° |
| 2026-05-05 15:34 | 39.83133 | -76.91243 | 14229 ft | 332 kts | 239° |
| 2026-05-05 15:34 | 39.81934 | -76.93809 | 13743 ft | 330 kts | 240° |
| 2026-05-05 15:34 | 39.80761 | -76.96312 | 13231 ft | 327 kts | 239° |
| 2026-05-05 15:35 | 39.79565 | -76.98851 | 12758 ft | 323 kts | 239° |
| 2026-05-05 15:35 | 39.78413 | -77.01296 | 12279 ft | 320 kts | 239° |
| 2026-05-05 15:35 | 39.77262 | -77.03749 | 11825 ft | 316 kts | 238° |
| 2026-05-05 15:35 | 39.76121 | -77.06167 | 11469 ft | 310 kts | 238° |
| 2026-05-05 15:36 | 39.75016 | -77.08506 | 11332 ft | 297 kts | 238° |
| 2026-05-05 15:36 | 39.73956 | -77.10750 | 11205 ft | 285 kts | 238° |
| 2026-05-05 15:36 | 39.72938 | -77.12904 | 11078 ft | 275 kts | 238° |
| 2026-05-05 15:36 | 39.71956 | -77.14982 | 10954 ft | 265 kts | 238° |
| 2026-05-05 15:37 | 39.71006 | -77.16989 | 10826 ft | 256 kts | 238° |
| 2026-05-05 15:37 | 39.70083 | -77.18939 | 10646 ft | 251 kts | 238° |
| 2026-05-05 15:37 | 39.69168 | -77.20871 | 10356 ft | 251 kts | 237° |
| 2026-05-05 15:37 | 39.68157 | -77.22704 | 10044 ft | 250 kts | 228° |
| 2026-05-05 15:38 | 39.66934 | -77.24293 | 9840 ft | 249 kts | 224° |
| 2026-05-05 15:38 | 39.65661 | -77.25822 | 9735 ft | 249 kts | 224° |
| 2026-05-05 15:38 | 39.64394 | -77.27333 | 9589 ft | 248 kts | 224° |
| 2026-05-05 15:38 | 39.63118 | -77.28859 | 9511 ft | 250 kts | 224° |
| 2026-05-05 15:39 | 39.61849 | -77.30379 | 9378 ft | 248 kts | 224° |
| 2026-05-05 15:39 | 39.60593 | -77.31884 | 9266 ft | 249 kts | 224° |
| 2026-05-05 15:39 | 39.59325 | -77.33403 | 9145 ft | 248 kts | 224° |
| 2026-05-05 15:39 | 39.58044 | -77.34914 | 9037 ft | 250 kts | 221° |
| 2026-05-05 15:40 | 39.56566 | -77.36159 | 8987 ft | 252 kts | 210° |
| 2026-05-05 15:40 | 39.55003 | -77.37136 | 8969 ft | 253 kts | 208° |
| 2026-05-05 15:40 | 39.53408 | -77.38085 | 8912 ft | 251 kts | 208° |
| 2026-05-05 15:40 | 39.51822 | -77.39030 | 8699 ft | 251 kts | 208° |
| 2026-05-05 15:41 | 39.50238 | -77.39974 | 8587 ft | 249 kts | 208° |
| 2026-05-05 15:41 | 39.48659 | -77.40917 | 8522 ft | 251 kts | 209° |
| 2026-05-05 15:41 | 39.47066 | -77.41873 | 8459 ft | 251 kts | 208° |
| 2026-05-05 15:41 | 39.45489 | -77.42819 | 8344 ft | 250 kts | 209° |
| 2026-05-05 15:42 | 39.43901 | -77.43773 | 8275 ft | 252 kts | 209° |
| 2026-05-05 15:42 | 39.42312 | -77.44728 | 8183 ft | 250 kts | 209° |
| 2026-05-05 15:42 | 39.40727 | -77.45677 | 8103 ft | 252 kts | 208° |
| 2026-05-05 15:42 | 39.39104 | -77.46547 | 8014 ft | 253 kts | 201° |
| 2026-05-05 15:43 | 39.37343 | -77.46889 | 7857 ft | 260 kts | 188° |
| 2026-05-05 15:43 | 39.35521 | -77.46940 | 7720 ft | 262 kts | 186° |
| 2026-05-05 15:43 | 39.33710 | -77.46950 | 7465 ft | 259 kts | 186° |
| 2026-05-05 15:43 | 39.31905 | -77.46966 | 7079 ft | 260 kts | 186° |
| 2026-05-05 15:44 | 39.30087 | -77.46988 | 6718 ft | 262 kts | 185° |
| 2026-05-05 15:44 | 39.28265 | -77.47006 | 6380 ft | 262 kts | 186° |
| 2026-05-05 15:44 | 39.26445 | -77.47031 | 6027 ft | 262 kts | 186° |
| 2026-05-05 15:44 | 39.24619 | -77.47055 | 5635 ft | 263 kts | 185° |
| 2026-05-05 15:45 | 39.22814 | -77.47079 | 5313 ft | 262 kts | 185° |
| 2026-05-05 15:45 | 39.21000 | -77.47108 | 4993 ft | 260 kts | 185° |
| 2026-05-05 15:45 | 39.19184 | -77.47136 | 4600 ft | 262 kts | 185° |
| 2026-05-05 15:45 | 39.17368 | -77.47157 | 4272 ft | 260 kts | 183° |
| 2026-05-05 15:46 | 39.15570 | -77.47174 | 3962 ft | 258 kts | 184° |
| 2026-05-05 15:46 | 39.13784 | -77.47148 | 3580 ft | 255 kts | 184° |
| 2026-05-05 15:46 | 39.12022 | -77.47178 | 3332 ft | 249 kts | 185° |
| 2026-05-05 15:46 | 39.10320 | -77.47225 | 3151 ft | 239 kts | 186° |
| 2026-05-05 15:47 | 39.08715 | -77.47268 | 2899 ft | 223 kts | 184° |
| 2026-05-05 15:47 | 39.07717 | -77.47259 | 2808 ft | 210 kts | 184° |
| 2026-05-05 15:47 | 39.05873 | -77.47305 | 2556 ft | 189 kts | 185° |
| 2026-05-05 15:47 | 39.04596 | -77.47335 | 2357 ft | 177 kts | 184° |
| 2026-05-05 15:48 | 39.03805 | -77.47344 | 2352 ft | 165 kts | 184° |
| 2026-05-05 15:48 | 39.02364 | -77.47360 | 2141 ft | 151 kts | 182° |
| 2026-05-05 15:48 | 39.01337 | -77.47380 | 1980 ft | 144 kts | 184° |
| 2026-05-05 15:48 | 39.00287 | -77.47401 | 1370 ft | 158 kts | 181° |
| 2026-05-05 15:49 | 38.99178 | -77.47406 | 895 ft | 157 kts | 182° |
| 2026-05-05 15:49 | 38.98120 | -77.47419 | 587 ft | 146 kts | 182° |
| 2026-05-05 15:49 | 38.97142 | -77.47439 | 363 ft | 134 kts | 184° |
| 2026-05-05 15:49 | 38.96297 | -77.47453 | 297 ft | 100 kts | 181° |
| 2026-05-05 15:50 | 38.95785 | -77.47462 | 302 ft | 49 kts | 181° |
| 2026-05-05 15:50 | 38.95576 | -77.47464 | 302 ft | 40 kts | 180° |
| 2026-05-05 15:50 | 38.95350 | -77.47455 | 302 ft | 30 kts | 173° |
| 2026-05-05 15:50 | 38.95168 | -77.47369 | 302 ft | 27 kts | 150° |
| 2026-05-05 15:51 | 38.95063 | -77.47287 | 299 ft | 15 kts | 137° |
| 2026-05-05 15:51 | 38.95037 | -77.47171 | 299 ft | 14 kts | 84° |
| 2026-05-05 15:51 | 38.95040 | -77.47040 | 300 ft | 15 kts | 89° |
| 2026-05-05 15:51 | 38.95040 | -77.46898 | 300 ft | 16 kts | 91° |
| 2026-05-05 15:52 | 38.95036 | -77.46749 | 297 ft | 17 kts | 91° |
| 2026-05-05 15:52 | 38.95032 | -77.46590 | 300 ft | 19 kts | 91° |
| 2026-05-05 15:52 | 38.95033 | -77.46424 | 300 ft | 18 kts | 90° |
| 2026-05-05 15:52 | 38.95031 | -77.46261 | 300 ft | 18 kts | 91° |
| 2026-05-05 15:53 | 38.95029 | -77.46103 | 299 ft | 18 kts | 90° |
| 2026-05-05 15:53 | 38.95020 | -77.45939 | 293 ft | 17 kts | 113° |
| 2026-05-05 15:53 | 38.94932 | -77.45862 | 298 ft | 14 kts | 153° |
| 2026-05-05 15:53 | 38.94851 | -77.45805 | 300 ft | 12 kts | 149° |
| 2026-05-05 15:54 | 38.94782 | -77.45750 | 300 ft | 11 kts | 139° |
| 2026-05-05 15:54 | 38.94760 | -77.45667 | 300 ft | 10 kts | 93° |
| 2026-05-05 15:54 | 38.94795 | -77.45607 | 300 ft | 9 kts | 15° |
| 2026-05-05 15:54 | 38.94871 | -77.45608 | 299 ft | 13 kts | 360° |
| 2026-05-05 15:55 | 38.94977 | -77.45603 | 299 ft | 17 kts | 1° |
| 2026-05-05 15:55 | 38.95034 | -77.45531 | 298 ft | 11 kts | 87° |
| 2026-05-05 15:55 | 38.95032 | -77.45406 | 300 ft | 17 kts | 92° |
| 2026-05-05 15:55 | 38.95031 | -77.45238 | 300 ft | 21 kts | 90° |
| 2026-05-05 15:56 | 38.95031 | -77.45054 | 300 ft | 20 kts | 91° |
| 2026-05-05 15:56 | 38.95028 | -77.44878 | 300 ft | 19 kts | 91° |
| 2026-05-05 15:56 | 38.95027 | -77.44708 | 296 ft | 19 kts | 90° |
| 2026-05-05 15:56 | 38.95026 | -77.44581 | 296 ft | 8 kts | 91° |
| 2026-05-05 15:57 | 38.95025 | -77.44507 | 296 ft | 8 kts | 91° |
| 2026-05-05 15:57 | 38.95007 | -77.44454 | 301 ft | 3 kts | 159° |
| 2026-05-05 15:57 | 38.94976 | -77.44462 | 299 ft | 7 kts | 191° |
| 2026-05-05 15:57 | 38.94945 | -77.44475 | 299 ft | 4 kts | 200° |
| 2026-05-05 15:58 | 38.94931 | -77.44481 | 301 ft | 2 kts | 199° |
| 2026-05-05 15:58 | 38.94924 | -77.44484 | 299 ft | 0 kts | 199° |